createdAt,value
2022-10-31T00:01:32.790Z,100152.84
2022-10-31T00:04:01.668Z,100149.78
2022-10-31T00:06:30.229Z,100150.03
2022-10-31T00:09:02.117Z,100137.97
2022-10-31T00:11:36.464Z,100141.75
2022-10-31T00:14:04.276Z,100140.19
2022-10-31T00:16:34.638Z,100129.81
2022-10-31T00:19:06.644Z,100137.16
2022-10-31T00:21:36.807Z,100129.31
2022-10-31T00:24:05.919Z,100132.16
2022-10-31T00:26:33.458Z,100129.72
2022-10-31T00:29:01.492Z,100122.75
2022-10-31T00:31:29.643Z,100115.78
2022-10-31T00:33:59.695Z,100113.34
2022-10-31T00:36:27.242Z,100108.56
2022-10-31T00:38:54.448Z,100114.81
2022-10-31T00:41:22.145Z,100111.72
2022-10-31T00:43:49.384Z,100110.38
2022-10-31T00:46:16.856Z,100114.63
2022-10-31T00:48:44.183Z,100119.91
2022-10-31T00:51:11.752Z,100106.69
2022-10-31T00:53:39.203Z,100099.72
2022-10-31T00:56:06.874Z,100098.75
2022-10-31T00:58:34.475Z,100097.19
2022-10-31T01:01:01.778Z,100089.25
2022-10-31T01:03:31.796Z,100093.16
2022-10-31T01:06:01.175Z,100093.56
2022-10-31T01:08:32.161Z,100092.09
2022-10-31T01:11:02.496Z,100080.75
2022-10-31T01:13:30.112Z,100081.13
2022-10-31T01:16:02.188Z,100087.00
2022-10-31T01:18:29.985Z,100090.91
2022-10-31T01:21:07.769Z,100080.69
2022-10-31T01:23:38.862Z,100078.38
2022-10-31T01:26:06.138Z,100082.16
2022-10-31T01:28:34.238Z,100081.69
2022-10-31T01:31:08.010Z,100076.31
2022-10-31T01:33:36.249Z,100076.47
2022-10-31T01:36:32.611Z,100075.72
2022-10-31T01:39:07.052Z,100066.94
2022-10-31T01:41:38.277Z,100072.56
2022-10-31T01:44:14.530Z,100078.03
2022-10-31T01:46:50.329Z,100082.94
2022-10-31T01:49:27.178Z,100072.19
2022-10-31T01:52:00.716Z,100074.25
2022-10-31T01:54:35.863Z,100070.00
2022-10-31T01:57:04.533Z,100058.91
2022-10-31T01:59:33.773Z,100062.81
2022-10-31T02:02:01.175Z,100062.81
2022-10-31T02:04:29.065Z,100067.53
2022-10-31T02:07:06.438Z,100064.13
2022-10-31T02:09:34.541Z,100071.22
2022-10-31T02:12:06.852Z,100075.75
2022-10-31T02:14:36.221Z,100065.72
2022-10-31T02:17:04.761Z,100067.47
2022-10-31T02:19:55.032Z,100071.72
2022-10-31T02:22:42.745Z,100074.41
2022-10-31T02:25:34.415Z,100074.69
2022-10-31T02:28:20.052Z,100072.72
2022-10-31T02:31:24.937Z,100075.41
2022-10-31T02:34:14.017Z,100072.91
2022-10-31T02:37:08.123Z,100070.38
2022-10-31T02:39:42.373Z,100071.59
2022-10-31T02:42:19.947Z,100061.06
2022-10-31T02:45:00.463Z,100066.34
2022-10-31T02:47:34.890Z,100062.06
2022-10-31T02:50:25.257Z,100065.59
2022-10-31T02:52:53.684Z,100059.63
2022-10-31T02:55:23.913Z,100070.34
2022-10-31T02:57:53.747Z,100074.88
2022-10-31T03:00:23.141Z,100061.59
2022-10-31T03:03:08.959Z,100065.88
2022-10-31T03:06:09.525Z,100063.06
2022-10-31T03:08:47.300Z,100061.22
2022-10-31T03:11:16.141Z,100046.09
2022-10-31T03:13:47.370Z,100044.25
2022-10-31T03:16:18.353Z,100046.78
2022-10-31T03:19:25.967Z,100046.94
2022-10-31T03:21:54.655Z,100043.50
2022-10-31T03:24:25.089Z,100044.97
2022-10-31T03:26:54.739Z,100042.03
2022-10-31T03:29:26.260Z,100039.09
2022-10-31T03:32:14.670Z,100045.97
2022-10-31T03:34:43.070Z,100037.97
2022-10-31T03:37:12.985Z,100043.16
2022-10-31T03:39:42.603Z,100031.03
2022-10-31T03:42:13.995Z,100038.75
2022-10-31T03:44:46.208Z,100039.22
2022-10-31T03:47:13.974Z,100035.78
2022-10-31T03:49:42.052Z,100050.31
2022-10-31T03:52:29.774Z,100045.69
2022-10-31T03:55:21.555Z,100033.69
2022-10-31T03:58:00.936Z,100036.50
2022-10-31T04:00:31.633Z,100030.41
2022-10-31T04:03:26.722Z,100037.59
2022-10-31T04:05:56.472Z,100041.16
2022-10-31T04:08:29.258Z,100041.53
2022-10-31T04:10:58.758Z,100039.84
2022-10-31T04:13:31.669Z,100040.94
2022-10-31T04:15:59.205Z,100041.66
2022-10-31T04:18:27.046Z,100044.09
2022-10-31T04:21:07.149Z,100046.66
2022-10-31T04:23:35.722Z,100045.91
2022-10-31T04:26:04.068Z,100053.44
2022-10-31T04:28:31.388Z,100050.72
2022-10-31T04:30:58.608Z,100046.91
2022-10-31T04:33:25.784Z,100051.06
2022-10-31T04:35:53.540Z,100059.13
2022-10-31T04:38:20.885Z,100061.56
2022-10-31T04:40:49.305Z,100068.16
2022-10-31T04:43:16.596Z,100065.31
2022-10-31T04:45:44.383Z,100069.00
2022-10-31T04:48:12.049Z,100069.72
2022-10-31T04:50:39.833Z,100060.69
2022-10-31T04:53:07.333Z,100066.53
2022-10-31T04:55:37.241Z,100072.09
2022-10-31T04:58:04.925Z,100065.34
2022-10-31T05:00:32.616Z,100074.63
2022-10-31T05:03:00.576Z,100067.44
2022-10-31T05:05:32.242Z,100068.50
2022-10-31T05:08:00.728Z,100069.69
2022-10-31T05:10:31.802Z,100073.97
2022-10-31T05:13:04.756Z,100082.06
2022-10-31T05:15:32.596Z,100073.13
2022-10-31T05:18:00.616Z,100074.94
2022-10-31T05:20:30.029Z,100083.00
2022-10-31T05:22:58.268Z,100085.69
2022-10-31T05:25:38.396Z,100079.22
2022-10-31T05:28:08.735Z,100080.81
2022-10-31T05:30:36.046Z,100084.19
2022-10-31T05:33:04.116Z,100081.25
2022-10-31T05:35:33.484Z,100089.34
2022-10-31T05:38:01.048Z,100078.88
2022-10-31T05:40:28.683Z,100078.75
2022-10-31T05:42:57.535Z,100080.59
2022-10-31T05:45:25.497Z,100092.91
2022-10-31T05:47:57.219Z,100095.03
2022-10-31T05:50:26.096Z,100091.88
2022-10-31T05:52:59.192Z,100090.44
2022-10-31T05:55:26.996Z,100103.19
2022-10-31T05:57:55.138Z,100115.06
2022-10-31T06:00:23.723Z,100100.75
2022-10-31T06:02:59.361Z,100104.44
2022-10-31T06:05:27.009Z,100116.31
2022-10-31T06:07:54.403Z,100118.28
2022-10-31T06:10:24.174Z,100117.56
2022-10-31T06:12:51.536Z,100117.94
2022-10-31T06:15:23.424Z,100108.16
2022-10-31T06:18:05.402Z,100115.47
2022-10-31T06:20:33.711Z,100112.50
2022-10-31T06:23:03.169Z,100114.81
2022-10-31T06:25:31.070Z,100107.31
2022-10-31T06:27:59.233Z,100121.66
2022-10-31T06:30:26.588Z,100115.50
2022-10-31T06:32:54.276Z,100123.34
2022-10-31T06:35:21.990Z,100122.09
2022-10-31T06:37:55.924Z,100131.88
2022-10-31T06:40:23.533Z,100131.16
2022-10-31T06:43:00.770Z,100141.09
2022-10-31T06:45:28.242Z,100141.94
2022-10-31T06:48:16.221Z,100143.19
2022-10-31T06:50:43.770Z,100133.13
2022-10-31T06:55:43.749Z,100137.41
2022-10-31T06:58:12.063Z,100135.56
2022-10-31T07:00:39.503Z,100135.94
2022-10-31T07:03:10.765Z,100153.50
2022-10-31T07:05:39.294Z,100137.94
2022-10-31T07:08:09.554Z,100140.50
2022-10-31T07:10:40.423Z,100133.97
2022-10-31T07:13:13.055Z,100138.50
2022-10-31T07:15:41.983Z,100145.88
2022-10-31T07:18:11.648Z,100134.25
2022-10-31T07:20:39.789Z,100139.63
2022-10-31T07:23:07.206Z,100143.38
2022-10-31T07:25:34.889Z,100142.53
2022-10-31T07:28:02.699Z,100140.94
2022-10-31T07:30:31.837Z,100152.94
2022-10-31T07:32:59.384Z,100138.34
2022-10-31T07:35:29.627Z,100143.84
2022-10-31T07:37:57.731Z,100148.25
2022-10-31T07:40:25.583Z,100157.19
2022-10-31T07:42:54.155Z,100169.09
2022-10-31T07:45:21.976Z,100162.59
2022-10-31T07:47:54.838Z,100179.09
2022-10-31T07:50:27.505Z,100182.47
2022-10-31T07:53:17.935Z,100185.63
2022-10-31T07:58:31.642Z,100206.31
2022-10-31T08:01:00.727Z,100174.19
2022-10-31T08:03:28.430Z,100199.16
2022-10-31T08:05:59.409Z,100200.25
2022-10-31T08:08:31.266Z,100196.75
2022-10-31T08:11:04.263Z,100207.63
2022-10-31T08:13:41.275Z,100204.31
2022-10-31T08:16:11.163Z,100213.56
2022-10-31T08:18:40.210Z,100213.22
2022-10-31T08:21:16.397Z,100214.47
2022-10-31T08:23:49.187Z,100229.03
2022-10-31T08:26:27.881Z,100230.63
2022-10-31T08:29:14.405Z,100210.09
2022-10-31T08:31:49.640Z,100236.47
2022-10-31T08:34:25.974Z,100217.78
2022-10-31T08:37:00.979Z,100243.41
2022-10-31T08:39:39.654Z,100227.03
2022-10-31T08:42:07.308Z,100229.63
2022-10-31T08:44:54.272Z,100235.31
2022-10-31T08:47:34.134Z,100232.28
2022-10-31T09:10:59.385Z,100270.53
2022-10-31T09:13:29.448Z,100277.81
2022-10-31T09:16:08.493Z,100278.31
2022-10-31T09:23:02.986Z,100253.59
2022-10-31T09:25:34.511Z,100260.19
2022-10-31T09:28:03.659Z,100261.25
2022-10-31T09:30:34.167Z,100259.34
2022-10-31T09:33:05.176Z,100242.88
2022-10-31T09:35:33.825Z,100237.94
2022-10-31T09:38:03.788Z,100256.88
2022-10-31T09:40:35.179Z,100265.25
2022-10-31T09:43:32.328Z,100260.59
2022-10-31T09:46:27.737Z,100257.66
2022-10-31T09:49:20.123Z,100270.31
2022-10-31T09:51:56.030Z,100263.13
2022-10-31T09:54:46.715Z,100283.44
2022-10-31T09:57:16.264Z,100271.44
2022-10-31T09:59:45.501Z,100281.72
2022-10-31T10:02:30.631Z,100278.94
2022-10-31T10:05:05.118Z,100294.06
2022-10-31T10:07:53.137Z,100304.09
2022-10-31T10:10:42.356Z,100293.44
2022-10-31T10:13:37.368Z,100286.38
2022-10-31T10:16:34.615Z,100286.88
2022-10-31T10:19:32.891Z,100296.53
2022-10-31T10:22:10.447Z,100298.84
2022-10-31T10:24:56.493Z,100309.97
2022-10-31T10:27:50.577Z,100308.38
2022-10-31T10:30:39.268Z,100319.19
2022-10-31T10:33:16.141Z,100322.28
2022-10-31T10:35:49.148Z,100329.97
2022-10-31T10:38:23.911Z,100328.00
2022-10-31T10:40:53.400Z,100338.28
2022-10-31T10:43:28.198Z,100336.78
2022-10-31T10:46:20.066Z,100346.81
2022-10-31T10:49:20.476Z,100369.88
2022-10-31T10:55:12.967Z,100358.91
2022-10-31T10:57:51.238Z,100345.63
2022-10-31T11:00:25.478Z,100366.00
2022-10-31T11:02:53.742Z,100362.59
2022-10-31T11:05:29.885Z,100358.94
2022-10-31T11:07:58.312Z,100361.25
2022-10-31T11:10:26.162Z,100361.06
2022-10-31T11:13:00.845Z,100365.22
2022-10-31T11:15:29.283Z,100368.19
2022-10-31T11:17:57.333Z,100363.44
2022-10-31T11:20:36.224Z,100374.41
2022-10-31T11:23:19.845Z,100374.59
2022-10-31T11:26:05.133Z,100377.94
2022-10-31T11:28:36.104Z,100379.00
2022-10-31T11:31:09.573Z,100402.09
2022-10-31T11:36:33.545Z,100398.16
2022-10-31T11:39:03.433Z,100404.88
2022-10-31T11:41:36.067Z,100406.38
2022-10-31T11:44:16.246Z,100407.19
2022-10-31T11:46:47.734Z,100408.31
2022-10-31T11:49:35.485Z,100417.09
2022-10-31T11:52:29.322Z,100407.16
2022-10-31T11:54:59.386Z,100436.66
2022-10-31T11:57:30.065Z,100425.94
2022-10-31T12:00:04.307Z,100438.59
2022-10-31T12:02:32.145Z,100436.25
2022-10-31T12:05:05.499Z,100429.41
2022-10-31T12:07:32.908Z,100435.63
2022-10-31T12:10:13.414Z,100461.91
2022-10-31T12:13:18.941Z,100478.00
2022-10-31T12:15:53.452Z,100472.63
2022-10-31T12:18:54.639Z,100471.91
2022-10-31T12:21:29.128Z,100472.44
2022-10-31T12:24:15.509Z,100469.41
2022-10-31T12:27:03.301Z,100446.00
2022-10-31T12:29:38.900Z,100503.22
2022-10-31T12:32:31.704Z,100500.44
2022-10-31T12:35:30.002Z,100487.09
2022-10-31T12:38:03.440Z,100509.53
2022-10-31T12:44:16.038Z,100513.41
2022-10-31T12:47:14.823Z,100532.94
2022-10-31T12:50:19.685Z,100517.38
2022-10-31T12:53:09.154Z,100519.22
2022-10-31T12:55:50.146Z,100542.28
2022-10-31T12:58:45.336Z,100530.28
2022-10-31T13:01:28.927Z,100528.56
2022-10-31T13:04:03.019Z,100528.84
2022-10-31T13:06:44.656Z,100541.84
2022-10-31T13:09:38.952Z,100535.63
2022-10-31T13:12:11.355Z,100547.09
2022-10-31T13:14:45.893Z,100556.31
2022-10-31T13:17:25.595Z,100549.38
2022-10-31T13:19:58.872Z,100551.38
2022-10-31T13:22:32.622Z,100551.19
2022-10-31T13:25:13.758Z,100566.13
2022-10-31T13:27:55.428Z,100567.16
2022-10-31T13:30:25.224Z,100573.38
2022-10-31T13:33:06.832Z,100582.16
2022-10-31T13:35:39.531Z,100579.69
2022-10-31T13:38:18.954Z,100586.03
2022-10-31T13:41:17.137Z,100577.97
2022-10-31T13:44:00.471Z,100597.03
2022-10-31T13:46:36.507Z,100602.81
2022-10-31T13:49:04.815Z,100593.16
2022-10-31T13:51:35.072Z,100620.50
2022-10-31T13:54:24.933Z,100607.84
2022-10-31T13:56:53.550Z,100606.31
2022-10-31T13:59:27.337Z,100603.09
2022-10-31T14:02:00.930Z,100607.66
2022-10-31T14:04:39.618Z,100612.59
2022-10-31T14:07:10.344Z,100624.66
2022-10-31T14:10:07.828Z,100632.81
2022-10-31T14:12:39.941Z,100620.88
2022-10-31T14:15:27.550Z,100644.66
2022-10-31T14:18:05.205Z,100645.06
2022-10-31T14:20:44.181Z,100644.03
2022-10-31T14:23:41.391Z,100646.41
2022-10-31T14:26:31.067Z,100641.91
2022-10-31T14:29:01.579Z,100657.41
2022-10-31T14:31:35.953Z,100658.66
2022-10-31T14:34:24.826Z,100655.41
2022-10-31T14:37:06.141Z,100660.56
2022-10-31T14:39:47.002Z,100666.50
2022-10-31T14:42:53.212Z,100674.53
2022-10-31T14:45:32.409Z,100671.16
2022-10-31T14:48:24.799Z,100685.78
2022-10-31T14:50:59.855Z,100687.88
2022-10-31T14:53:50.994Z,100694.97
2022-10-31T14:56:27.466Z,100700.59
2022-10-31T14:59:00.802Z,100714.16
2022-10-31T15:01:37.834Z,100706.97
2022-10-31T15:04:23.677Z,100714.44
2022-10-31T15:07:25.754Z,100724.44
2022-10-31T15:10:04.794Z,100725.41
2022-10-31T15:12:35.577Z,100720.97
2022-10-31T15:15:23.780Z,100731.22
2022-10-31T15:17:57.235Z,100734.16
2022-10-31T15:20:38.706Z,100737.84
2022-10-31T15:23:06.963Z,100750.19
2022-10-31T15:25:36.108Z,100755.81
2022-10-31T15:28:17.117Z,100757.44
2022-10-31T15:31:04.135Z,100760.38
2022-10-31T15:33:50.946Z,100756.59
2022-10-31T15:36:29.858Z,100773.59
2022-10-31T15:38:59.342Z,100783.34
2022-10-31T15:41:54.553Z,100786.00
2022-10-31T15:44:27.362Z,100793.19
2022-10-31T15:52:41.033Z,100805.09
2022-10-31T15:55:11.811Z,100808.81
2022-10-31T15:57:44.237Z,100818.81
2022-10-31T16:00:34.793Z,100812.84
2022-10-31T16:06:05.895Z,100816.75
2022-10-31T16:08:36.845Z,100820.44
2022-10-31T16:11:08.398Z,100831.25
2022-10-31T16:13:38.810Z,100833.06
2022-10-31T16:16:34.018Z,100835.81
2022-10-31T16:19:06.883Z,100841.16
2022-10-31T16:21:39.869Z,100850.22
2022-10-31T16:24:19.562Z,100850.28
2022-10-31T16:29:43.933Z,100848.72
2022-10-31T16:32:32.945Z,100853.22
2022-10-31T16:35:13.370Z,100853.56
2022-10-31T16:37:42.447Z,100856.25
2022-10-31T16:40:20.119Z,100867.78
2022-10-31T16:42:50.802Z,100870.38
2022-10-31T16:45:23.035Z,100867.94
2022-10-31T16:47:50.943Z,100873.44
2022-10-31T16:50:22.926Z,100873.81
2022-10-31T16:53:12.849Z,100874.66
2022-10-31T16:55:54.232Z,100890.78
2022-10-31T16:58:31.406Z,100881.97
2022-10-31T17:01:02.295Z,100884.03
2022-10-31T17:03:31.240Z,100894.13
2022-10-31T17:05:58.587Z,100891.59
2022-10-31T17:08:26.936Z,100891.59
2022-10-31T17:10:58.561Z,100903.47
2022-10-31T17:13:30.933Z,100894.81
2022-10-31T17:16:02.972Z,100899.53
2022-10-31T17:18:31.575Z,100903.16
2022-10-31T17:21:00.660Z,100904.50
2022-10-31T17:23:30.650Z,100911.41
2022-10-31T17:25:58.271Z,100906.94
2022-10-31T17:28:27.557Z,100922.00
2022-10-31T17:30:56.147Z,100914.00
2022-10-31T17:33:24.758Z,100915.09
2022-10-31T17:35:52.353Z,100927.84
2022-10-31T17:38:20.781Z,100922.81
2022-10-31T17:43:30.591Z,100939.84
2022-10-31T17:46:15.311Z,100933.81
2022-10-31T18:46:54.361Z,100985.75
2022-10-31T19:12:35.297Z,101012.13
2022-10-31T19:15:02.666Z,101005.19
2022-10-31T19:17:30.473Z,101015.00
2022-10-31T19:19:58.900Z,101009.66
2022-10-31T19:22:26.967Z,101020.19
2022-10-31T19:24:54.527Z,101019.38
2022-10-31T19:27:22.409Z,101022.19
2022-10-31T19:30:03.188Z,101031.25
2022-10-31T19:32:31.590Z,101030.53
2022-10-31T19:35:01.665Z,101027.19
2022-10-31T19:37:29.212Z,101032.81
2022-10-31T19:39:58.612Z,101030.22
2022-10-31T19:42:26.279Z,101038.22
2022-10-31T19:44:56.043Z,101045.31
2022-10-31T19:47:30.342Z,101041.13
2022-10-31T19:49:58.902Z,101043.13
2022-10-31T19:52:26.395Z,101052.97
2022-10-31T19:54:54.860Z,101055.94
2022-10-31T19:57:48.408Z,101053.34
2022-10-31T20:00:11.313Z,101046.41
2022-10-31T20:02:39.054Z,101059.00
2022-10-31T20:05:14.156Z,101056.44
2022-10-31T20:07:47.278Z,101054.84
2022-10-31T20:10:14.938Z,101061.97
2022-10-31T20:15:27.270Z,101075.53
2022-10-31T20:17:56.765Z,101073.91
2022-10-31T20:20:25.965Z,101072.28
2022-10-31T20:22:55.224Z,101077.78
2022-10-31T20:28:26.335Z,101086.16
2022-10-31T20:30:55.116Z,101081.88
2022-10-31T20:33:24.946Z,101082.00
2022-10-31T20:35:52.697Z,101083.97
2022-10-31T20:38:20.570Z,101079.72
2022-10-31T20:40:48.202Z,101082.13
2022-10-31T20:43:16.949Z,101086.66
2022-10-31T20:45:45.127Z,101083.28
2022-10-31T20:48:13.613Z,101081.72
2022-10-31T20:50:41.150Z,101079.16
2022-10-31T20:53:08.847Z,101084.59
2022-10-31T20:55:48.363Z,101075.66
2022-10-31T20:58:17.090Z,101069.59
2022-10-31T21:00:45.752Z,101071.47
2022-10-31T21:03:14.319Z,101078.63
2022-10-31T21:05:42.505Z,101080.41
2022-10-31T21:08:10.228Z,101083.22
2022-10-31T21:10:39.154Z,101085.25
2022-10-31T21:13:07.603Z,101083.56
2022-10-31T21:15:34.923Z,101095.13
2022-10-31T21:18:03.856Z,101094.38
2022-10-31T21:20:31.473Z,101101.66
2022-10-31T21:23:01.692Z,101101.97
2022-10-31T21:25:29.367Z,101103.13
2022-10-31T21:27:56.788Z,101102.41
2022-10-31T21:30:24.343Z,101107.09
2022-10-31T21:32:52.434Z,101110.88
2022-10-31T21:35:19.905Z,101101.53
2022-10-31T21:37:47.990Z,101098.19
2022-10-31T21:40:15.585Z,101096.66
2022-10-31T21:42:43.700Z,101087.84
2022-10-31T21:45:11.044Z,101089.88
2022-10-31T21:47:39.056Z,101097.16
2022-10-31T21:50:06.866Z,101094.88
2022-10-31T21:52:34.641Z,101092.56
2022-10-31T21:55:01.937Z,101106.06
2022-10-31T21:57:33.041Z,101110.72
2022-10-31T22:00:00.719Z,101116.31
2022-10-31T22:02:28.084Z,101119.97
2022-10-31T22:04:55.387Z,101118.44
2022-10-31T22:07:22.720Z,101131.00
2022-10-31T22:09:51.153Z,101120.41
2022-10-31T22:12:19.134Z,101123.03
2022-10-31T22:14:48.445Z,101121.38
2022-10-31T22:17:16.356Z,101124.13
2022-10-31T22:19:44.289Z,101123.34
2022-10-31T22:22:17.428Z,101117.81
2022-10-31T22:24:47.900Z,101122.97
2022-10-31T22:27:15.408Z,101123.69
2022-10-31T22:29:45.516Z,101127.94
2022-10-31T22:32:12.780Z,101135.69
2022-10-31T22:34:41.006Z,101139.97
2022-10-31T22:37:09.036Z,101139.03
2022-10-31T22:39:39.672Z,101133.59
2022-10-31T22:42:08.399Z,101129.91
2022-10-31T22:44:35.846Z,101133.34
2022-10-31T22:47:03.337Z,101121.84
2022-10-31T22:49:31.485Z,101116.69
2022-10-31T22:52:03.082Z,101118.47
2022-10-31T22:54:31.301Z,101106.91
2022-10-31T22:56:58.555Z,101105.13
2022-10-31T22:59:25.953Z,101111.38
2022-10-31T23:01:54.452Z,101110.53
2022-10-31T23:04:22.539Z,101116.69
2022-10-31T23:06:55.797Z,101109.59
2022-10-31T23:09:23.255Z,101113.97
2022-10-31T23:11:50.539Z,101105.91
2022-10-31T23:14:23.006Z,101097.00
2022-10-31T23:16:55.073Z,101100.59
2022-10-31T23:19:27.442Z,101102.41
2022-10-31T23:22:04.956Z,101105.03
2022-10-31T23:24:38.792Z,101103.34
2022-10-31T23:27:30.451Z,101111.28
2022-10-31T23:29:59.539Z,101102.47
2022-10-31T23:32:35.256Z,101102.47
2022-10-31T23:35:05.603Z,101099.72
2022-10-31T23:37:35.334Z,101110.34
2022-10-31T23:40:03.883Z,101105.13
2022-10-31T23:42:31.279Z,101109.44
2022-10-31T23:44:58.670Z,101107.53
2022-10-31T23:47:31.419Z,101101.31
2022-10-31T23:50:01.167Z,101107.47
2022-10-31T23:52:29.211Z,101107.38
2022-10-31T23:54:56.696Z,101102.06
2022-10-31T23:57:24.184Z,101102.91
